< < Back
Terminal Aerodrome Forecast


Current Version              Previous Versions:   1  2  3  4  5  6  7  8  9  

Terminal Aerodrome Forecast

327
FTUS42 KCHS 221900 AAA
TAFCHS
TAF AMD
KCHS 221934Z 2220/2318 34011G18KT P6SM SKC
     FM222200 34006KT P6SM SKC
     FM231300 31008KT P6SM SKC=

Latest METAR

874
SAUS80 KWBC 222100 RRA
MTRCHS
METAR KCHS 222056Z 34011KT 10SM CLR 21/04 A3000 RMK AO2 SLP157 T02060044
56004


USA.gov is the U.S. government's official web portal to all federal, state and local government web resources and services.